createdAt,value
2023-05-08T00:00:26.786Z,101789.43
2023-05-08T00:01:49.618Z,101785.25
2023-05-08T00:02:52.576Z,101785.95
2023-05-08T00:03:55.677Z,101785.06
2023-05-08T00:04:58.758Z,101788.36
2023-05-08T00:06:05.904Z,101782.77
2023-05-08T00:07:08.812Z,101790.73
2023-05-08T00:08:11.871Z,101785.90
2023-05-08T00:09:15.070Z,101785.21
2023-05-08T00:10:17.963Z,101784.92
2023-05-08T00:11:21.090Z,101792.95
2023-05-08T00:12:24.272Z,101787.05
2023-05-08T00:13:27.301Z,101787.52
2023-05-08T00:14:30.222Z,101786.46
2023-05-08T00:15:33.100Z,101792.74
2023-05-08T00:16:35.988Z,101787.98
2023-05-08T00:17:39.973Z,101792.29
2023-05-08T00:18:43.477Z,101790.81
2023-05-08T00:19:46.311Z,101785.60
2023-05-08T00:20:49.146Z,101786.96
2023-05-08T00:21:52.530Z,101786.56
2023-05-08T00:22:56.013Z,101788.76
2023-05-08T00:23:58.890Z,101789.02
2023-05-08T00:25:02.007Z,101793.83
2023-05-08T00:26:04.969Z,101792.88
2023-05-08T00:27:10.732Z,101793.23
2023-05-08T00:28:13.811Z,101794.89
2023-05-08T00:29:16.689Z,101796.41
2023-05-08T00:30:19.808Z,101797.05
2023-05-08T00:31:24.137Z,101797.12
2023-05-08T00:32:27.567Z,101796.45
2023-05-08T00:33:30.620Z,101802.09
2023-05-08T00:34:33.767Z,101799.10
2023-05-08T00:35:36.628Z,101806.19
2023-05-08T00:36:39.840Z,101799.98
2023-05-08T00:37:43.945Z,101803.02
2023-05-08T00:38:47.417Z,101805.79
2023-05-08T00:39:50.750Z,101803.98
2023-05-08T00:40:53.675Z,101802.10
2023-05-08T00:41:56.744Z,101804.64
2023-05-08T00:42:59.517Z,101802.10
2023-05-08T00:44:02.347Z,101804.63
2023-05-08T00:45:05.751Z,101803.77
2023-05-08T00:46:10.058Z,101805.71
2023-05-08T00:47:13.056Z,101804.89
2023-05-08T00:48:16.100Z,101809.06
2023-05-08T00:49:19.417Z,101808.92
2023-05-08T00:50:22.256Z,101805.38
2023-05-08T00:51:25.294Z,101804.13
2023-05-08T00:52:30.908Z,101813.84
2023-05-08T00:53:37.690Z,101809.88
2023-05-08T00:54:40.897Z,101814.41
2023-05-08T00:55:44.121Z,101814.26
2023-05-08T00:56:47.344Z,101816.13
2023-05-08T00:57:51.122Z,101812.36
2023-05-08T00:58:54.202Z,101811.53
2023-05-08T00:59:57.249Z,101814.42
2023-05-08T01:01:00.919Z,101814.72
2023-05-08T01:02:04.242Z,101821.98
2023-05-08T01:03:09.390Z,101818.36
2023-05-08T01:04:12.766Z,101827.82
2023-05-08T01:05:15.654Z,101821.13
2023-05-08T01:06:18.557Z,101822.77
2023-05-08T01:07:21.405Z,101825.04
2023-05-08T01:08:25.666Z,101824.41
2023-05-08T01:09:28.851Z,101824.58
2023-05-08T01:11:13.326Z,101825.39
2023-05-08T01:12:43.235Z,101829.23
2023-05-08T01:13:57.839Z,101830.71
2023-05-08T01:15:11.672Z,101838.60
2023-05-08T01:16:17.900Z,101840.38
2023-05-08T01:17:58.922Z,101840.85
2023-05-08T01:19:24.383Z,101835.01
2023-05-08T01:20:49.019Z,101837.77
2023-05-08T01:22:00.673Z,101837.72
2023-05-08T01:23:28.367Z,101835.69
2023-05-08T01:25:02.365Z,101839.34
2023-05-08T01:26:30.026Z,101843.38
2023-05-08T01:27:35.686Z,101839.36
2023-05-08T01:29:09.473Z,101839.78
2023-05-08T01:30:32.188Z,101841.79
2023-05-08T01:32:02.494Z,101843.25
2023-05-08T01:33:14.524Z,101842.23
2023-05-08T01:34:23.237Z,101851.54
2023-05-08T01:36:00.744Z,101845.62
2023-05-08T01:37:09.755Z,101846.22
2023-05-08T01:38:22.963Z,101845.17
2023-05-08T01:39:44.176Z,101851.33
2023-05-08T01:40:56.984Z,101852.58
2023-05-08T01:42:18.654Z,101844.66
2023-05-08T01:43:46.089Z,101846.90
2023-05-08T01:44:53.935Z,101843.14
2023-05-08T01:45:59.434Z,101849.73
2023-05-08T01:47:07.010Z,101846.09
2023-05-08T01:48:13.581Z,101846.52
2023-05-08T01:49:27.787Z,101848.73
2023-05-08T01:50:46.878Z,101853.89
2023-05-08T01:51:57.907Z,101854.82
2023-05-08T01:53:09.617Z,101856.93
2023-05-08T01:54:16.716Z,101849.89
2023-05-08T01:55:30.682Z,101854.80
2023-05-08T01:56:36.684Z,101854.80
2023-05-08T01:57:47.124Z,101849.55
2023-05-08T01:58:54.388Z,101857.54
2023-05-08T02:00:01.263Z,101855.38
2023-05-08T02:01:04.847Z,101853.77
2023-05-08T02:02:09.640Z,101853.12
2023-05-08T02:03:15.800Z,101853.19
2023-05-08T02:04:20.056Z,101851.11
2023-05-08T02:05:24.736Z,101851.55
2023-05-08T02:06:31.679Z,101851.66
2023-05-08T02:07:38.265Z,101863.09
2023-05-08T02:08:42.620Z,101850.56
2023-05-08T02:09:50.279Z,101855.50
2023-05-08T02:10:54.201Z,101849.20
2023-05-08T02:11:59.247Z,101854.15
2023-05-08T02:13:04.454Z,101862.02
2023-05-08T02:14:08.910Z,101859.11
2023-05-08T02:15:15.113Z,101859.76
2023-05-08T02:16:19.308Z,101856.18
2023-05-08T02:17:22.344Z,101861.91
2023-05-08T02:18:28.537Z,101865.89
2023-05-08T02:19:33.554Z,101867.14
2023-05-08T02:20:38.733Z,101866.58
2023-05-08T02:21:44.067Z,101866.19
2023-05-08T02:22:51.475Z,101864.50
2023-05-08T02:23:57.369Z,101859.92
2023-05-08T02:25:01.337Z,101862.60
2023-05-08T02:26:04.983Z,101861.54
2023-05-08T02:27:10.086Z,101859.49
2023-05-08T02:28:13.511Z,101855.71
2023-05-08T02:29:17.406Z,101859.52
2023-05-08T02:30:24.551Z,101863.04
2023-05-08T02:31:29.640Z,101859.30
2023-05-08T02:32:34.812Z,101862.36
2023-05-08T02:33:41.719Z,101865.17
2023-05-08T02:34:58.823Z,101867.84
2023-05-08T02:36:07.442Z,101865.00
2023-05-08T02:37:10.770Z,101864.53
2023-05-08T02:38:15.862Z,101861.77
2023-05-08T02:39:21.579Z,101864.27
2023-05-08T02:40:27.789Z,101866.25
2023-05-08T02:41:33.915Z,101863.40
2023-05-08T02:42:37.652Z,101863.54
2023-05-08T02:43:40.806Z,101861.66
2023-05-08T02:44:43.845Z,101860.13
2023-05-08T02:46:12.750Z,101859.80
2023-05-08T02:47:23.234Z,101859.39
2023-05-08T02:48:55.028Z,101866.45
2023-05-08T02:50:09.895Z,101868.38
2023-05-08T02:51:24.383Z,101866.71
2023-05-08T02:52:43.034Z,101858.59
2023-05-08T02:53:52.229Z,101860.76
2023-05-08T02:54:55.175Z,101864.31
2023-05-08T02:56:08.998Z,101860.16
2023-05-08T02:57:23.000Z,101867.87
2023-05-08T02:58:35.041Z,101867.98
2023-05-08T02:59:45.527Z,101866.17
2023-05-08T03:01:08.429Z,101866.38
2023-05-08T03:02:38.098Z,101866.88
2023-05-08T03:03:45.438Z,101869.64
2023-05-08T03:04:57.226Z,101870.68
2023-05-08T03:06:03.501Z,101868.13
2023-05-08T03:07:06.619Z,101872.96
2023-05-08T03:08:16.326Z,101868.20
2023-05-08T03:09:23.120Z,101873.80
2023-05-08T03:10:31.912Z,101875.17
2023-05-08T03:11:41.278Z,101875.04
2023-05-08T03:12:48.776Z,101877.61
2023-05-08T03:13:59.069Z,101878.52
2023-05-08T03:15:11.295Z,101878.64
2023-05-08T03:16:21.170Z,101880.42
2023-05-08T03:17:25.551Z,101876.11
2023-05-08T03:18:36.468Z,101874.80
2023-05-08T03:19:44.300Z,101881.04
2023-05-08T03:20:52.912Z,101885.27
2023-05-08T03:21:58.124Z,101877.22
2023-05-08T03:23:03.380Z,101879.33
2023-05-08T03:24:09.235Z,101878.09
2023-05-08T03:25:14.425Z,101880.67
2023-05-08T03:26:22.425Z,101884.66
2023-05-08T03:27:26.837Z,101885.16
2023-05-08T03:28:31.944Z,101882.90
2023-05-08T03:29:38.603Z,101886.80
2023-05-08T03:30:42.307Z,101887.27
2023-05-08T03:31:50.485Z,101891.45
2023-05-08T03:32:55.210Z,101891.54
2023-05-08T03:33:59.120Z,101886.23
2023-05-08T03:35:04.404Z,101892.98
2023-05-08T03:36:08.406Z,101889.65
2023-05-08T03:37:11.669Z,101891.55
2023-05-08T03:38:16.412Z,101890.10
2023-05-08T03:39:19.459Z,101891.44
2023-05-08T03:40:22.506Z,101896.47
2023-05-08T03:41:26.484Z,101895.04
2023-05-08T03:42:31.607Z,101888.22
2023-05-08T03:43:37.119Z,101893.67
2023-05-08T03:44:40.066Z,101887.00
2023-05-08T03:45:44.246Z,101886.16
2023-05-08T03:46:48.964Z,101890.66
2023-05-08T03:47:53.963Z,101886.80
2023-05-08T03:49:00.425Z,101885.11
2023-05-08T03:50:03.909Z,101887.39
2023-05-08T03:51:06.983Z,101883.61
2023-05-08T03:52:13.289Z,101888.83
2023-05-08T03:53:16.646Z,101886.77
2023-05-08T03:54:19.575Z,101888.12
2023-05-08T03:55:22.932Z,101880.08
2023-05-08T03:56:26.275Z,101879.73
2023-05-08T03:57:51.214Z,101883.61
2023-05-08T03:59:17.035Z,101886.81
2023-05-08T04:00:32.088Z,101890.52
2023-05-08T04:01:51.655Z,101886.84
2023-05-08T04:03:11.105Z,101890.11
2023-05-08T04:04:47.448Z,101889.52
2023-05-08T04:06:08.006Z,101886.34
2023-05-08T04:07:38.504Z,101894.42
2023-05-08T04:08:49.079Z,101897.56
2023-05-08T04:10:00.566Z,101898.07
2023-05-08T04:11:15.836Z,101903.16
2023-05-08T04:12:22.979Z,101899.66
2023-05-08T04:13:31.451Z,101904.55
2023-05-08T04:14:44.207Z,101905.34
2023-05-08T04:16:00.572Z,101912.23
2023-05-08T04:17:10.083Z,101911.92
2023-05-08T04:18:19.062Z,101913.96
2023-05-08T04:19:30.120Z,101914.08
2023-05-08T04:20:34.168Z,101910.95
2023-05-08T04:21:42.450Z,101918.11
2023-05-08T04:22:48.401Z,101921.36
2023-05-08T04:23:56.315Z,101912.17
2023-05-08T04:25:02.996Z,101915.73
2023-05-08T04:26:07.985Z,101922.60
2023-05-08T04:27:12.154Z,101920.02
2023-05-08T04:28:16.955Z,101921.42
2023-05-08T04:29:20.974Z,101921.09
2023-05-08T04:30:25.720Z,101921.66
2023-05-08T04:31:30.660Z,101923.83
2023-05-08T04:32:35.226Z,101923.31
2023-05-08T04:33:39.281Z,101924.70
2023-05-08T04:34:42.552Z,101924.55
2023-05-08T04:35:46.408Z,101925.63
2023-05-08T04:36:49.682Z,101931.23
2023-05-08T04:37:53.668Z,101928.45
2023-05-08T04:38:57.130Z,101926.36
2023-05-08T04:40:01.348Z,101930.86
2023-05-08T04:41:05.565Z,101927.98
2023-05-08T04:42:08.520Z,101931.57
2023-05-08T04:43:11.698Z,101928.77
2023-05-08T04:44:14.871Z,101926.58
2023-05-08T04:45:18.113Z,101927.79
2023-05-08T04:46:21.292Z,101927.32
2023-05-08T04:47:24.507Z,101934.90
2023-05-08T04:48:27.639Z,101935.16
2023-05-08T04:49:30.684Z,101931.02
2023-05-08T04:50:34.121Z,101934.36
2023-05-08T04:51:37.236Z,101934.45
2023-05-08T04:52:40.666Z,101934.02
2023-05-08T04:53:43.801Z,101939.15
2023-05-08T04:54:47.061Z,101935.99
2023-05-08T04:55:50.511Z,101933.40
2023-05-08T04:56:53.489Z,101937.07
2023-05-08T04:57:56.547Z,101939.79
2023-05-08T04:58:59.446Z,101938.63
2023-05-08T05:00:02.587Z,101942.82
2023-05-08T05:01:06.346Z,101945.26
2023-05-08T05:02:09.802Z,101946.68
2023-05-08T05:03:13.107Z,101945.63
2023-05-08T05:04:16.249Z,101954.92
2023-05-08T05:05:19.506Z,101951.11
2023-05-08T05:06:22.913Z,101946.42
2023-05-08T05:07:26.182Z,101949.89
2023-05-08T05:08:29.318Z,101950.15
2023-05-08T05:09:37.068Z,101947.08
2023-05-08T05:10:44.291Z,101953.30
2023-05-08T05:11:47.256Z,101950.17
2023-05-08T05:12:50.996Z,101951.14
2023-05-08T05:13:54.355Z,101950.25
2023-05-08T05:14:57.731Z,101951.20
2023-05-08T05:16:01.097Z,101960.30
2023-05-08T05:17:04.669Z,101956.52
2023-05-08T05:18:07.707Z,101960.84
2023-05-08T05:19:10.685Z,101958.08
2023-05-08T05:20:14.231Z,101959.07
2023-05-08T05:21:17.250Z,101953.10
2023-05-08T05:22:20.400Z,101956.45
2023-05-08T05:23:23.398Z,101957.95
2023-05-08T05:24:26.324Z,101959.22
2023-05-08T05:25:29.196Z,101961.23
2023-05-08T05:26:32.205Z,101962.44
2023-05-08T05:27:36.955Z,101960.10
2023-05-08T05:28:40.192Z,101961.73
2023-05-08T05:29:43.422Z,101961.14
2023-05-08T05:30:49.441Z,101967.36
2023-05-08T05:31:52.995Z,101964.14
2023-05-08T05:32:56.325Z,101964.52
2023-05-08T05:33:59.516Z,101957.77
2023-05-08T05:35:06.356Z,101957.05
2023-05-08T05:36:09.437Z,101966.09
2023-05-08T05:37:12.549Z,101963.20
2023-05-08T05:38:15.533Z,101959.15
2023-05-08T05:39:18.766Z,101964.17
2023-05-08T05:40:21.801Z,101967.03
2023-05-08T05:41:24.743Z,101965.09
2023-05-08T05:42:27.779Z,101964.58
2023-05-08T05:43:31.015Z,101964.70
2023-05-08T05:44:33.899Z,101966.33
2023-05-08T05:45:37.090Z,101965.23
2023-05-08T05:46:42.719Z,101964.66
2023-05-08T05:47:50.060Z,101972.48
2023-05-08T05:48:54.305Z,101972.15
2023-05-08T05:49:58.084Z,101970.15
2023-05-08T05:51:03.685Z,101970.80
2023-05-08T05:52:06.734Z,101972.07
2023-05-08T05:53:10.087Z,101969.58
2023-05-08T05:54:14.597Z,101974.11
2023-05-08T05:55:17.646Z,101970.35
2023-05-08T05:56:23.626Z,101974.29
2023-05-08T05:57:26.510Z,101975.26
2023-05-08T05:58:29.776Z,101972.05
2023-05-08T05:59:33.089Z,101972.59
2023-05-08T06:00:36.171Z,101969.92
2023-05-08T06:01:39.380Z,101972.13
2023-05-08T06:02:42.872Z,101971.56
2023-05-08T06:03:49.093Z,101976.48
2023-05-08T06:04:52.484Z,101973.25
2023-05-08T06:05:56.454Z,101971.90
2023-05-08T06:06:59.490Z,101972.95
2023-05-08T06:08:02.396Z,101968.04
2023-05-08T06:09:07.092Z,101973.42
2023-05-08T06:10:11.095Z,101971.75
2023-05-08T06:11:14.153Z,101968.60
2023-05-08T06:12:18.538Z,101971.02
2023-05-08T06:13:21.475Z,101970.50
2023-05-08T06:14:24.707Z,101975.07
2023-05-08T06:15:27.567Z,101975.06
2023-05-08T06:16:30.826Z,101974.08
2023-05-08T06:17:33.977Z,101972.72
2023-05-08T06:18:37.592Z,101974.70
2023-05-08T06:19:40.560Z,101980.56
2023-05-08T06:20:43.513Z,101974.11
2023-05-08T06:21:46.422Z,101978.50
2023-05-08T06:22:49.248Z,101969.95
2023-05-08T06:23:52.304Z,101978.75
2023-05-08T06:24:55.704Z,101978.55
2023-05-08T06:25:58.801Z,101974.06
2023-05-08T06:27:01.770Z,101977.24
2023-05-08T06:28:06.708Z,101977.59
2023-05-08T06:29:09.619Z,101973.48
2023-05-08T06:30:15.655Z,101971.10
2023-05-08T06:31:19.248Z,101972.84
2023-05-08T06:32:22.628Z,101973.59
2023-05-08T06:33:27.150Z,101975.69
2023-05-08T06:34:30.121Z,101973.98
2023-05-08T06:35:32.958Z,101977.36
2023-05-08T06:36:36.430Z,101980.05
2023-05-08T06:37:39.272Z,101978.90
2023-05-08T06:38:42.157Z,101981.66
2023-05-08T06:39:45.026Z,101979.77
2023-05-08T06:40:50.191Z,101976.02
2023-05-08T06:41:53.019Z,101981.04
2023-05-08T06:43:01.078Z,101979.64
2023-05-08T06:44:04.344Z,101982.25
2023-05-08T06:45:08.919Z,101980.55
2023-05-08T06:46:11.994Z,101972.73
2023-05-08T06:47:14.951Z,101974.92
2023-05-08T06:48:17.830Z,101973.08
2023-05-08T06:49:21.122Z,101974.65
2023-05-08T06:50:24.092Z,101970.85
2023-05-08T06:51:27.244Z,101970.25
2023-05-08T06:52:30.113Z,101973.39
2023-05-08T06:53:32.963Z,101979.33
2023-05-08T06:54:35.903Z,101972.70
2023-05-08T06:55:38.889Z,101972.23
2023-05-08T06:56:42.225Z,101971.63
2023-05-08T06:57:45.126Z,101972.17
2023-05-08T06:58:57.066Z,101966.19
2023-05-08T07:00:11.693Z,101968.66
2023-05-08T07:01:15.200Z,101970.65
2023-05-08T07:02:18.297Z,101971.01
2023-05-08T07:03:21.316Z,101970.30
2023-05-08T07:04:24.667Z,101976.39
2023-05-08T07:05:27.702Z,101975.86
2023-05-08T07:06:34.628Z,101974.25
2023-05-08T07:07:37.558Z,101975.61
2023-05-08T07:08:41.331Z,101972.86
2023-05-08T07:09:44.204Z,101977.06
2023-05-08T07:10:47.074Z,101976.73
2023-05-08T07:11:49.913Z,101972.50
2023-05-08T07:12:52.948Z,101975.30
2023-05-08T07:13:56.103Z,101976.33
2023-05-08T07:14:59.601Z,101976.67
2023-05-08T07:16:03.540Z,101981.53
2023-05-08T07:17:09.328Z,101978.11
2023-05-08T07:18:12.234Z,101976.95
2023-05-08T07:19:15.244Z,101980.34
2023-05-08T07:20:18.208Z,101979.41
2023-05-08T07:21:21.416Z,101980.29
2023-05-08T07:22:24.297Z,101979.52
2023-05-08T07:23:27.629Z,101981.70
2023-05-08T07:24:30.644Z,101982.73
2023-05-08T07:25:33.737Z,101982.84
2023-05-08T07:26:36.605Z,101985.73
2023-05-08T07:27:39.534Z,101986.42
2023-05-08T07:28:42.370Z,101985.24
2023-05-08T07:29:45.202Z,101985.11
2023-05-08T07:30:48.075Z,101987.36
2023-05-08T07:31:52.201Z,101986.55
2023-05-08T07:32:55.152Z,101986.38
2023-05-08T07:33:58.133Z,101989.30
2023-05-08T07:35:02.983Z,101988.04
2023-05-08T07:36:06.070Z,101990.15
2023-05-08T07:37:09.110Z,101989.45
2023-05-08T07:38:12.078Z,101995.42
2023-05-08T07:39:15.100Z,101992.59
2023-05-08T07:40:18.096Z,101994.36
2023-05-08T07:41:20.958Z,101994.45
2023-05-08T07:42:23.798Z,101993.39
2023-05-08T07:43:26.667Z,101993.73
2023-05-08T07:44:37.562Z,101994.56
2023-05-08T07:45:46.479Z,101993.13
2023-05-08T07:46:49.548Z,101992.58
2023-05-08T07:47:54.799Z,101991.46
2023-05-08T07:48:57.659Z,101995.15
2023-05-08T07:50:00.763Z,101991.34
2023-05-08T07:51:03.843Z,101993.29
2023-05-08T07:52:06.814Z,101989.77
2023-05-08T07:53:09.664Z,101986.49
2023-05-08T07:54:12.479Z,101987.60
2023-05-08T07:55:15.627Z,101984.73
2023-05-08T07:56:18.931Z,101987.48
2023-05-08T07:57:21.892Z,101988.50
2023-05-08T07:58:25.225Z,101991.34
2023-05-08T07:59:28.110Z,101991.77
2023-05-08T08:00:31.533Z,101989.79
2023-05-08T08:01:34.576Z,101984.90
2023-05-08T08:02:38.820Z,101987.16
2023-05-08T08:03:41.988Z,101986.98
2023-05-08T08:04:45.661Z,101988.98
2023-05-08T08:05:48.622Z,101987.51
2023-05-08T08:06:51.450Z,101990.19
2023-05-08T08:07:54.335Z,101987.66
2023-05-08T08:08:57.311Z,101988.02
2023-05-08T08:10:00.770Z,101987.69
2023-05-08T08:11:04.010Z,101984.77
2023-05-08T08:12:07.228Z,101989.52
2023-05-08T08:13:10.136Z,101985.01
2023-05-08T08:14:12.979Z,101993.44
2023-05-08T08:15:16.125Z,101987.25
2023-05-08T08:16:19.550Z,101985.73
2023-05-08T08:17:22.954Z,101988.01
2023-05-08T08:18:26.071Z,101987.98
2023-05-08T08:19:28.905Z,101991.05
2023-05-08T08:20:31.765Z,101991.23
2023-05-08T08:21:34.721Z,101986.48
2023-05-08T08:22:37.966Z,101985.15
2023-05-08T08:23:40.939Z,101984.76
2023-05-08T08:24:43.753Z,101978.58
2023-05-08T08:25:46.745Z,101973.77
2023-05-08T08:26:49.613Z,101973.77
2023-05-08T08:27:52.511Z,101970.23
2023-05-08T08:28:55.388Z,101973.19
2023-05-08T08:30:12.987Z,101972.17
2023-05-08T08:31:20.329Z,101971.80
2023-05-08T08:32:23.362Z,101968.80
2023-05-08T08:33:28.800Z,101968.57
2023-05-08T08:34:33.720Z,101968.69
2023-05-08T08:35:36.698Z,101967.31
2023-05-08T08:36:39.897Z,101969.56
2023-05-08T08:37:43.254Z,101967.10
2023-05-08T08:38:46.138Z,101966.10
2023-05-08T08:39:49.444Z,101965.36
2023-05-08T08:40:53.230Z,101959.42
2023-05-08T08:41:56.677Z,101970.26
2023-05-08T08:42:59.572Z,101968.51
2023-05-08T08:44:02.411Z,101967.35
2023-05-08T08:45:06.942Z,101967.66
2023-05-08T08:46:15.495Z,101963.33
2023-05-08T08:47:19.488Z,101957.58
2023-05-08T08:48:27.459Z,101959.88
2023-05-08T08:49:35.736Z,101961.35
2023-05-08T08:50:43.956Z,101966.28
2023-05-08T08:51:52.682Z,101963.59
2023-05-08T08:53:07.451Z,101959.79
2023-05-08T08:54:13.319Z,101957.33
2023-05-08T08:55:18.456Z,101957.02
2023-05-08T08:56:23.908Z,101956.39
2023-05-08T08:57:32.866Z,101955.67
2023-05-08T08:58:46.852Z,101951.33
2023-05-08T08:59:49.957Z,101950.73
2023-05-08T09:00:55.191Z,101947.95
2023-05-08T09:02:06.314Z,101945.16
2023-05-08T09:03:10.025Z,101953.71
2023-05-08T09:04:13.292Z,101954.17
2023-05-08T09:05:16.517Z,101952.77
2023-05-08T09:06:20.144Z,101955.60
2023-05-08T09:07:23.102Z,101952.75
2023-05-08T09:08:26.118Z,101950.97
2023-05-08T09:09:29.289Z,101951.09
2023-05-08T09:10:32.118Z,101952.19
2023-05-08T09:11:36.357Z,101957.01
2023-05-08T09:12:41.164Z,101955.08
2023-05-08T09:13:44.094Z,101950.43
2023-05-08T09:14:47.036Z,101954.00
2023-05-08T09:15:52.925Z,101950.56
2023-05-08T09:16:55.825Z,101954.38
2023-05-08T09:18:00.836Z,101949.16
2023-05-08T09:19:04.699Z,101944.42
2023-05-08T09:20:08.878Z,101947.05
2023-05-08T09:21:11.944Z,101943.74
2023-05-08T09:22:15.760Z,101958.36
2023-05-08T09:23:18.629Z,101951.83
2023-05-08T09:24:23.086Z,101949.31
2023-05-08T09:25:25.869Z,101946.37
2023-05-08T09:26:37.072Z,101945.59
2023-05-08T09:27:39.879Z,101947.11
2023-05-08T09:28:43.139Z,101948.38
2023-05-08T09:30:07.987Z,101945.73
2023-05-08T09:31:10.810Z,101948.34
2023-05-08T09:32:18.630Z,101948.33
2023-05-08T09:33:27.824Z,101949.95
2023-05-08T09:34:33.206Z,101946.89
2023-05-08T09:35:36.828Z,101945.81
2023-05-08T09:36:42.303Z,101943.19
2023-05-08T09:37:46.472Z,101944.70
2023-05-08T09:38:49.320Z,101944.17
2023-05-08T09:39:53.009Z,101942.21
2023-05-08T09:41:14.693Z,101944.68
2023-05-08T09:42:17.593Z,101945.39
2023-05-08T09:43:20.696Z,101943.80
2023-05-08T09:44:23.417Z,101942.50
2023-05-08T09:45:31.737Z,101942.99
2023-05-08T09:46:35.602Z,101945.19
2023-05-08T09:47:39.672Z,101940.84
2023-05-08T09:48:42.752Z,101942.14
2023-05-08T09:50:02.084Z,101943.75
2023-05-08T09:51:07.723Z,101943.95
2023-05-08T09:52:15.983Z,101942.23
2023-05-08T09:53:18.859Z,101945.52
2023-05-08T09:54:22.453Z,101941.40
2023-05-08T09:55:25.199Z,101938.23
2023-05-08T09:56:41.240Z,101942.73
2023-05-08T09:57:58.560Z,101940.85
2023-05-08T09:59:03.658Z,101933.76
2023-05-08T10:00:14.678Z,101933.98
2023-05-08T10:01:32.836Z,101935.31
2023-05-08T10:02:37.290Z,101928.20
2023-05-08T10:03:50.299Z,101933.02
2023-05-08T10:04:53.084Z,101935.45
2023-05-08T10:06:11.825Z,101930.92
2023-05-08T10:07:14.654Z,101932.20
2023-05-08T10:08:22.473Z,101933.84
2023-05-08T10:09:27.397Z,101927.95
2023-05-08T10:10:33.646Z,101928.80
2023-05-08T10:11:37.280Z,101925.48
2023-05-08T10:12:41.617Z,101922.54
2023-05-08T10:13:45.182Z,101926.54
2023-05-08T10:14:47.934Z,101925.14
2023-05-08T10:15:54.821Z,101928.02
2023-05-08T10:17:00.919Z,101919.45
2023-05-08T10:18:14.683Z,101918.41
2023-05-08T10:19:19.750Z,101912.83
2023-05-08T10:20:24.257Z,101912.48
2023-05-08T10:21:29.577Z,101909.05
2023-05-08T10:22:36.996Z,101903.81
2023-05-08T10:23:40.369Z,101904.05
2023-05-08T10:24:44.314Z,101904.13
2023-05-08T10:25:48.793Z,101903.13
2023-05-08T10:27:07.368Z,101905.47
2023-05-08T10:28:15.605Z,101907.11
2023-05-08T10:29:25.550Z,101907.17
2023-05-08T10:30:31.184Z,101905.27
2023-05-08T10:31:36.664Z,101907.23
2023-05-08T10:32:43.947Z,101903.76
2023-05-08T10:33:51.277Z,101903.02
2023-05-08T10:34:59.151Z,101898.95
2023-05-08T10:36:02.215Z,101901.41
2023-05-08T10:37:06.190Z,101905.71
2023-05-08T10:38:09.599Z,101903.65
2023-05-08T10:39:14.794Z,101900.13
2023-05-08T10:40:18.785Z,101899.08
2023-05-08T10:41:23.208Z,101898.11
2023-05-08T10:42:27.716Z,101895.76
2023-05-08T10:43:33.635Z,101900.30
2023-05-08T10:44:36.981Z,101897.95
2023-05-08T10:45:40.301Z,101898.21
2023-05-08T10:46:58.587Z,101898.16
2023-05-08T10:48:22.414Z,101895.48
2023-05-08T10:49:48.704Z,101908.03
2023-05-08T10:51:01.193Z,101899.49
2023-05-08T10:52:12.560Z,101898.88
2023-05-08T10:53:57.300Z,101896.52
2023-05-08T10:55:04.453Z,101902.70
2023-05-08T10:56:07.392Z,101898.56
2023-05-08T10:57:12.291Z,101900.21
2023-05-08T10:58:23.880Z,101900.36
2023-05-08T10:59:26.629Z,101898.00
2023-05-08T11:00:53.385Z,101903.95
2023-05-08T11:02:05.515Z,101898.02
2023-05-08T11:03:20.092Z,101893.54
2023-05-08T11:04:30.550Z,101894.05
2023-05-08T11:05:46.499Z,101891.63
2023-05-08T11:06:53.070Z,101895.26
2023-05-08T11:07:57.768Z,101891.29
2023-05-08T11:09:00.997Z,101892.98
2023-05-08T11:10:13.139Z,101894.86
2023-05-08T11:11:29.194Z,101895.23
2023-05-08T11:12:33.939Z,101889.95
2023-05-08T11:13:50.302Z,101886.13
2023-05-08T11:15:13.445Z,101888.33
2023-05-08T11:16:16.605Z,101887.61
2023-05-08T11:17:24.088Z,101882.85
2023-05-08T11:18:32.559Z,101882.69
2023-05-08T11:20:02.382Z,101876.95
2023-05-08T11:21:14.480Z,101876.89
2023-05-08T11:22:26.020Z,101874.76
2023-05-08T11:23:30.180Z,101872.38
2023-05-08T11:24:38.320Z,101871.02
2023-05-08T11:25:44.655Z,101870.41
2023-05-08T11:26:50.067Z,101870.45
2023-05-08T11:27:55.883Z,101869.67
2023-05-08T11:28:59.385Z,101870.23
2023-05-08T11:30:25.835Z,101866.34
2023-05-08T11:32:02.162Z,101868.77
2023-05-08T11:33:05.329Z,101871.70
2023-05-08T11:34:44.371Z,101868.95
2023-05-08T11:35:48.727Z,101866.61
2023-05-08T11:37:03.607Z,101858.84
2023-05-08T11:38:23.602Z,101861.20
2023-05-08T11:39:26.607Z,101860.19
2023-05-08T11:40:45.934Z,101860.46
2023-05-08T11:41:48.626Z,101857.73
2023-05-08T11:42:51.432Z,101864.36
2023-05-08T11:44:02.976Z,101854.91
2023-05-08T11:45:08.355Z,101860.37
2023-05-08T11:46:20.163Z,101857.48
2023-05-08T11:47:25.728Z,101860.58
2023-05-08T11:48:28.975Z,101861.05
2023-05-08T11:49:31.707Z,101858.83
2023-05-08T11:50:36.105Z,101856.30
2023-05-08T11:51:39.636Z,101856.31
2023-05-08T11:52:43.497Z,101860.77
2023-05-08T11:53:47.076Z,101858.23
2023-05-08T11:54:49.854Z,101860.62
2023-05-08T11:55:54.079Z,101860.98
2023-05-08T11:56:57.574Z,101862.80
2023-05-08T11:58:00.334Z,101862.72
2023-05-08T11:59:05.069Z,101859.06
2023-05-08T12:00:10.039Z,101852.70
2023-05-08T12:01:20.147Z,101852.09
2023-05-08T12:02:55.507Z,101850.88
2023-05-08T12:04:06.292Z,101853.86
2023-05-08T12:05:10.732Z,101848.71
2023-05-08T12:06:13.800Z,101848.25
2023-05-08T12:07:16.745Z,101849.77
2023-05-08T12:08:19.627Z,101847.61
2023-05-08T12:09:22.487Z,101848.45
2023-05-08T12:10:25.436Z,101847.20
2023-05-08T12:11:28.193Z,101847.80
2023-05-08T12:12:41.357Z,101839.42
2023-05-08T12:13:51.162Z,101843.65
2023-05-08T12:14:54.038Z,101846.67
2023-05-08T12:16:01.368Z,101843.55
2023-05-08T12:17:04.233Z,101840.94
2023-05-08T12:18:06.976Z,101839.73
2023-05-08T12:19:11.723Z,101841.02
2023-05-08T12:20:16.300Z,101837.44
2023-05-08T12:21:21.285Z,101835.65
2023-05-08T12:22:24.093Z,101831.80
2023-05-08T12:23:29.369Z,101831.02
2023-05-08T12:24:32.575Z,101835.02
2023-05-08T12:25:37.353Z,101836.31
2023-05-08T12:26:40.083Z,101835.06
2023-05-08T12:27:43.344Z,101834.48
2023-05-08T12:28:47.266Z,101830.50
2023-05-08T12:29:50.054Z,101838.59
2023-05-08T12:30:53.854Z,101830.90
2023-05-08T12:31:57.106Z,101834.05
2023-05-08T12:33:01.011Z,101833.31
2023-05-08T12:34:05.271Z,101835.39
2023-05-08T12:35:09.363Z,101826.81
2023-05-08T12:36:12.209Z,101826.92
2023-05-08T12:37:27.855Z,101831.95
2023-05-08T12:38:30.679Z,101832.77
2023-05-08T12:39:37.577Z,101828.73